METAR Analyzer

一覧表示

Hello, Guest. (Login)

WADD/DPS  -  バリ/デンパサール/ングラ・ライ

観測日時
2020-10-25 14:00 (UTC) (29分前)
気温
27
露点
24
湿数
3
相対湿度
83.7%
QNH
1011hPa
推定現地気圧
1010.5hPa
推定海面気圧
1011.0hPa
体感温度
22.9
(無風時)
26.9
HI
30.1
気温前日比
±0
体感温度前日比
-0.3
HI前日比
-0.8
水平視程
>10000m
鉛直視程
データなし
雲底高度
No dense clouds
V/I
VMC (VFR)
RVR
No RVR data
卓越風
5kt from 170°
ガスト
No gust
降水
報告なし
その他の天気
報告なし
少しの雲 @ 1700ft AGL

WADD 251400Z 17005KT 9999 FEW017 27/24 Q1011 NOSIG

RPLL/MNL  -  マニラ/ニノイ・アキノ

観測日時
2020-10-25 14:00 (UTC) (29分前)
気温
26
露点
24
湿数
2
相対湿度
88.8%
QNH
1005.1hPa
推定現地気圧
1002.4hPa
推定海面気圧
1005.0hPa
体感温度
21
(無風時)
26.4
HI
27
気温前日比
±0
体感温度前日比
-2.8
HI前日比
-0.1
水平視程
5000m / 一時 3000m
鉛直視程
データなし
雲底高度
7000ft AGL
V/I
VMC (VFR)
RVR
No RVR data
卓越風
8kt from 340° (300° ~ 10°)
ガスト
No gust
降水
中程度の雨
降水 (一時)
強い雨
その他の天気
報告なし
散在する雲 @ 2000ft AGL / 全天を覆う雲 @ 7000ft AGL

RPLL 251400Z 34008KT 300V010 5000 RA SCT020 OVC070 26/24 Q1005 TEMPO 3000 +RA RMK A2968

VTBS/BKK  -  バンコク/スワンナプーム

観測日時
2020-10-25 14:00 (UTC) (29分前)
気温
28
露点
20
湿数
8
相対湿度
61.8%
QNH
1010hPa
推定現地気圧
1009.8hPa
推定海面気圧
1010.0hPa
体感温度
23.5
(無風時)
26.2
HI
29.7
気温前日比
+1
体感温度前日比
+0.3
HI前日比
+0.5
水平視程
9000m
鉛直視程
データなし
雲底高度
No dense clouds
V/I
VMC (VFR)
RVR
No RVR data
卓越風
3kt from 220° (200° ~ 290°)
ガスト
No gust
降水
報告なし
その他の天気
報告なし
少しの雲 @ 3500ft AGL

VTBS 251400Z 22003KT 200V290 9000 FEW035 28/20 Q1010 NOSIG

VTSM/USM  -  サムイ

観測日時
2020-10-25 13:30 (UTC) (59分前)
気温
29
露点
24
湿数
5
相対湿度
74.5%
QNH
1011hPa
推定現地気圧
1008.6hPa
推定海面気圧
1010.9hPa
体感温度
27.9
(無風時)
27.9
HI
33.6
気温前日比
データなし
体感温度前日比
データなし
HI前日比
データなし
水平視程
>10000m
鉛直視程
データなし
雲底高度
No dense clouds
V/I
VMC (VFR)
RVR
No RVR data
卓越風
静穏
ガスト
No gust
降水
報告なし
その他の天気
報告なし
少しの雲 @ 2000ft AGL

VTSM 251330Z 00000KT 9999 FEW020 29/24 Q1011 NOSIG

5.1msec